Decoded Metar for LZTT (POPRAD in SLOVAKIA) (IATA:TAT) | Meteo·Mobile Aviation Weather
aviador You're here:

LZTT Decoded Metar

POPRAD in SLOVAKIA
Report Time2019-01-18 13:30:00
UTC Time2019-01-18 13:42:18
Flight Rules vfr VFR
Wind270° at 15 kt
W.Decomp.*RWY 27: 15.0 kt HW 1 kt LCW
RWY 25: 14.4 kt HW 4.1 kt RCW
W.Rank270° ranks 2
Current wind is above 270° avg. (8.0)
Visibility9999 m
Phenomena:N/A
Clouds:Few 006 Hf
Scattered 026 Hf
Broken 100 Hf
Expected CloudBase > 2,000 ft AGL from Temp-Dew spread
Ceiling10,000 ft
Temp-1°C (ISA -11)
Dew Point-6°C (69% RH)
AAT-9.1°C
QNH1011 hPa
Density Alt1,063 ft
Elevation2,320 ft
Report Wrong Elevation
Raw Report
LZTT 181330Z 27015KT 9999 FEW006 SCT026 BKN100 M01/M06 Q1011
NOSIG=

Extra information for LZTT:More info

Metar Taf Metar & Taf Last 4 Metars F.Rules Stats Wind Profile Meteogram Temp Stats Airport Information Weather charts Add Link Nearby VenuesMetar ALERT Operation Metar Decoded Social comments